createdAt,value
2017-09-14T00:00:19.786Z,0
2017-09-14T00:01:19.858Z,0
2017-09-14T00:02:19.836Z,0
2017-09-14T00:03:19.857Z,0
2017-09-14T00:04:19.891Z,0
2017-09-14T00:05:19.903Z,0
2017-09-14T00:06:19.930Z,0
2017-09-14T00:07:19.956Z,0
2017-09-14T00:08:19.975Z,0
2017-09-14T00:09:20.002Z,0
2017-09-14T00:10:20.023Z,0
2017-09-14T00:11:20.360Z,0
2017-09-14T00:12:20.377Z,0
2017-09-14T00:13:20.405Z,0
2017-09-14T00:14:20.119Z,0
2017-09-14T00:15:20.142Z,0
2017-09-14T00:16:20.168Z,0
2017-09-14T00:17:20.241Z,0
2017-09-14T00:18:20.214Z,0
2017-09-14T00:19:20.240Z,0
2017-09-14T00:20:20.253Z,0
2017-09-14T00:21:20.283Z,0
2017-09-14T00:22:20.625Z,0
2017-09-14T00:23:20.344Z,0
2017-09-14T00:24:20.352Z,0
2017-09-14T00:25:20.374Z,0
2017-09-14T00:26:20.400Z,0
2017-09-14T00:27:20.418Z,0
2017-09-14T00:28:20.450Z,0
2017-09-14T00:29:25.127Z,0
2017-09-14T00:30:20.516Z,0
2017-09-14T00:31:20.521Z,0
2017-09-14T00:32:20.858Z,0
2017-09-14T00:33:20.876Z,0
2017-09-14T00:34:20.589Z,0
2017-09-14T00:35:20.662Z,0
2017-09-14T00:36:20.631Z,0
2017-09-14T00:37:20.971Z,0
2017-09-14T00:38:20.684Z,0
2017-09-14T00:39:20.709Z,0
2017-09-14T00:40:21.041Z,0
2017-09-14T00:41:21.084Z,0
2017-09-14T00:42:20.770Z,0
2017-09-14T00:43:21.426Z,0
2017-09-14T00:44:20.819Z,0
2017-09-14T00:45:20.838Z,0
2017-09-14T00:46:20.871Z,0
2017-09-14T00:47:20.891Z,0
2017-09-14T00:48:20.916Z,0
2017-09-14T00:49:20.945Z,0
2017-09-14T00:50:21.011Z,0
2017-09-14T00:51:20.983Z,0
2017-09-14T00:52:21.016Z,0
2017-09-14T00:53:21.030Z,0
2017-09-14T00:54:21.367Z,0
2017-09-14T00:55:21.111Z,0
2017-09-14T00:56:21.099Z,0
2017-09-14T00:57:21.127Z,0
2017-09-14T00:58:21.149Z,0
2017-09-14T00:59:21.170Z,0
2017-09-14T01:00:21.206Z,0
2017-09-14T01:01:21.220Z,0
2017-09-14T01:02:21.239Z,0
2017-09-14T01:03:21.572Z,0
2017-09-14T01:04:21.295Z,0
2017-09-14T01:05:21.324Z,0
2017-09-14T01:06:21.346Z,0
2017-09-14T01:07:21.354Z,0
2017-09-14T01:08:21.383Z,0
2017-09-14T01:09:21.474Z,0
2017-09-14T01:10:21.430Z,0
2017-09-14T01:11:21.773Z,0
2017-09-14T01:12:21.479Z,0
2017-09-14T01:13:21.513Z,0
2017-09-14T01:14:21.836Z,0
2017-09-14T01:15:21.546Z,0
2017-09-14T01:16:21.886Z,0
2017-09-14T01:17:21.585Z,0
2017-09-14T01:18:21.622Z,0
2017-09-14T01:19:21.647Z,0
2017-09-14T01:20:21.977Z,0
2017-09-14T01:21:21.681Z,0
2017-09-14T01:22:22.015Z,0
2017-09-14T01:23:21.726Z,0
2017-09-14T01:24:21.757Z,0
2017-09-14T01:25:21.788Z,0
2017-09-14T01:26:21.850Z,0
2017-09-14T01:27:21.834Z,0
2017-09-14T01:28:21.853Z,0
2017-09-14T01:29:21.879Z,0
2017-09-14T01:30:22.256Z,0
2017-09-14T01:31:21.924Z,0
2017-09-14T01:32:21.961Z,0
2017-09-14T01:33:21.962Z,0
2017-09-14T01:34:21.993Z,0
2017-09-14T01:35:22.010Z,0
2017-09-14T01:36:22.040Z,0
2017-09-14T01:37:22.062Z,0
2017-09-14T01:38:22.203Z,0
2017-09-14T01:39:22.104Z,0
2017-09-14T01:40:22.442Z,0
2017-09-14T01:41:22.152Z,0
2017-09-14T01:42:22.481Z,0
2017-09-14T01:43:22.204Z,0
2017-09-14T01:44:22.217Z,0
2017-09-14T01:45:22.251Z,0
2017-09-14T01:46:22.267Z,0
2017-09-14T01:47:22.289Z,0
2017-09-14T01:48:22.309Z,0
2017-09-14T01:49:22.336Z,0
2017-09-14T01:50:22.359Z,0
2017-09-14T01:51:22.690Z,0
2017-09-14T01:52:23.025Z,0
2017-09-14T01:53:22.426Z,0
2017-09-14T01:54:22.445Z,0
2017-09-14T01:55:22.488Z,0
2017-09-14T01:56:22.818Z,0
2017-09-14T01:57:22.837Z,0
2017-09-14T01:58:22.538Z,0
2017-09-14T01:59:22.561Z,0
2017-09-14T02:00:22.589Z,0
2017-09-14T02:01:22.669Z,0
2017-09-14T02:02:22.647Z,0
2017-09-14T02:03:22.669Z,0
2017-09-14T02:04:22.686Z,0
2017-09-14T02:05:23.023Z,0
2017-09-14T02:06:22.729Z,0
2017-09-14T02:07:22.758Z,0
2017-09-14T02:08:22.772Z,0
2017-09-14T02:09:22.792Z,0
2017-09-14T02:10:23.131Z,0
2017-09-14T02:11:22.840Z,0
2017-09-14T02:12:23.181Z,0
2017-09-14T02:13:22.893Z,0
2017-09-14T02:14:22.914Z,0
2017-09-14T02:15:22.936Z,0
2017-09-14T02:16:23.012Z,0
2017-09-14T02:17:22.982Z,0
2017-09-14T02:18:23.007Z,0
2017-09-14T02:19:23.020Z,0
2017-09-14T02:20:23.058Z,0
2017-09-14T02:21:23.066Z,0
2017-09-14T02:22:23.093Z,0
2017-09-14T02:23:23.424Z,0
2017-09-14T02:24:23.449Z,0
2017-09-14T02:25:23.164Z,0
2017-09-14T02:26:23.504Z,0
2017-09-14T02:27:23.225Z,0
2017-09-14T02:28:23.230Z,0
2017-09-14T02:29:23.558Z,0
2017-09-14T02:30:23.279Z,0
2017-09-14T02:31:23.304Z,0
2017-09-14T02:32:23.313Z,0
2017-09-14T02:33:23.661Z,0
2017-09-14T02:34:23.366Z,0
2017-09-14T02:35:23.701Z,0
2017-09-14T02:36:23.404Z,0
2017-09-14T02:37:23.430Z,0
2017-09-14T02:38:23.452Z,0
2017-09-14T02:39:23.480Z,0
2017-09-14T02:40:23.504Z,0
2017-09-14T02:41:23.840Z,0
2017-09-14T02:42:23.854Z,0
2017-09-14T02:43:23.564Z,0
2017-09-14T02:44:23.591Z,0
2017-09-14T02:45:23.607Z,0
2017-09-14T02:46:23.630Z,0
2017-09-14T02:47:23.663Z,0
2017-09-14T02:48:23.693Z,0
2017-09-14T02:49:24.017Z,0
2017-09-14T02:50:23.733Z,0
2017-09-14T02:51:23.800Z,0
2017-09-14T02:52:23.795Z,0
2017-09-14T02:53:23.786Z,0
2017-09-14T02:54:23.813Z,0
2017-09-14T02:55:23.844Z,0
2017-09-14T02:56:23.873Z,0
2017-09-14T02:57:23.881Z,0
2017-09-14T02:58:23.917Z,0
2017-09-14T02:59:23.930Z,0
2017-09-14T03:00:23.952Z,0
2017-09-14T03:01:24.285Z,0
2017-09-14T03:02:23.999Z,0
2017-09-14T03:03:24.012Z,0
2017-09-14T03:04:24.047Z,0
2017-09-14T03:05:24.060Z,0
2017-09-14T03:06:24.133Z,0
2017-09-14T03:07:24.423Z,0
2017-09-14T03:08:24.132Z,0
2017-09-14T03:09:24.151Z,0
2017-09-14T03:10:24.177Z,0
2017-09-14T03:11:24.213Z,0
2017-09-14T03:12:24.225Z,0
2017-09-14T03:13:24.245Z,0
2017-09-14T03:14:24.286Z,0
2017-09-14T03:15:24.283Z,0
2017-09-14T03:16:24.313Z,0
2017-09-14T03:17:24.337Z,0
2017-09-14T03:18:24.353Z,0
2017-09-14T03:19:24.385Z,0
2017-09-14T03:20:24.723Z,0
2017-09-14T03:21:24.425Z,0
2017-09-14T03:22:24.457Z,0
2017-09-14T03:23:24.479Z,0
2017-09-14T03:24:24.492Z,0
2017-09-14T03:25:24.513Z,0
2017-09-14T03:26:24.535Z,0
2017-09-14T03:27:24.574Z,0
2017-09-14T03:28:24.891Z,0
2017-09-14T03:29:24.925Z,0
2017-09-14T03:30:24.633Z,0
2017-09-14T03:31:24.649Z,0
2017-09-14T03:32:24.668Z,0
2017-09-14T03:33:24.694Z,0
2017-09-14T03:34:24.720Z,0
2017-09-14T03:35:24.739Z,0
2017-09-14T03:36:24.759Z,0
2017-09-14T03:37:24.788Z,0
2017-09-14T03:38:24.806Z,0
2017-09-14T03:39:24.889Z,0
2017-09-14T03:40:24.851Z,0
2017-09-14T03:41:24.882Z,0
2017-09-14T03:42:24.899Z,0
2017-09-14T03:43:24.920Z,0
2017-09-14T03:44:24.964Z,0
2017-09-14T03:45:24.965Z,0
2017-09-14T03:46:24.986Z,0
2017-09-14T03:47:25.007Z,0
2017-09-14T03:48:25.035Z,0
2017-09-14T03:49:25.059Z,0
2017-09-14T03:50:25.096Z,0
2017-09-14T03:51:25.102Z,0
2017-09-14T03:52:25.125Z,0
2017-09-14T03:53:25.147Z,0
2017-09-14T03:54:25.218Z,0
2017-09-14T03:55:25.183Z,0
2017-09-14T03:56:25.207Z,0
2017-09-14T03:57:25.242Z,0
2017-09-14T03:58:25.262Z,0
2017-09-14T03:59:25.278Z,0
2017-09-14T04:00:25.299Z,0
2017-09-14T04:01:25.320Z,0
2017-09-14T04:02:25.344Z,0
2017-09-14T04:03:25.370Z,0
2017-09-14T04:04:25.394Z,0
2017-09-14T04:05:25.731Z,0
2017-09-14T04:06:25.797Z,0
2017-09-14T04:07:25.463Z,0
2017-09-14T04:08:25.477Z,0
2017-09-14T04:09:25.504Z,0
2017-09-14T04:10:25.526Z,0
2017-09-14T04:11:25.598Z,0
2017-09-14T04:12:25.886Z,0
2017-09-14T04:13:25.630Z,0
2017-09-14T04:14:25.638Z,0
2017-09-14T04:15:25.647Z,0
2017-09-14T04:16:25.734Z,0
2017-09-14T04:17:25.680Z,0
2017-09-14T04:18:25.700Z,0
2017-09-14T04:19:26.035Z,0
2017-09-14T04:20:25.758Z,0
2017-09-14T04:21:25.870Z,4
2017-09-14T04:22:25.810Z,4
2017-09-14T04:23:25.833Z,0
2017-09-14T04:24:25.843Z,4
2017-09-14T04:25:25.861Z,0
2017-09-14T04:26:25.888Z,4
2017-09-14T04:27:25.907Z,4
2017-09-14T04:28:26.245Z,4
2017-09-14T04:29:26.258Z,8
2017-09-14T04:30:26.011Z,12
2017-09-14T04:31:26.015Z,12
2017-09-14T04:32:26.013Z,16
2017-09-14T04:33:26.034Z,16
2017-09-14T04:34:26.060Z,20
2017-09-14T04:35:26.075Z,24
2017-09-14T04:36:26.755Z,32
2017-09-14T04:37:26.141Z,40
2017-09-14T04:38:26.141Z,48
2017-09-14T04:39:26.236Z,52
2017-09-14T04:40:26.190Z,64
2017-09-14T04:41:26.209Z,72
2017-09-14T04:42:26.242Z,84
2017-09-14T04:43:26.276Z,96
2017-09-14T04:44:26.625Z,108
2017-09-14T04:45:26.307Z,128
2017-09-14T04:46:26.441Z,140
2017-09-14T04:47:26.348Z,160
2017-09-14T04:48:26.710Z,180
2017-09-14T04:49:26.389Z,196
2017-09-14T04:50:26.408Z,220
2017-09-14T04:51:26.749Z,244
2017-09-14T04:52:26.460Z,264
2017-09-14T04:53:26.793Z,288
2017-09-14T04:54:26.523Z,316
2017-09-14T04:55:26.574Z,340
2017-09-14T04:56:26.546Z,364
2017-09-14T04:57:26.566Z,392
2017-09-14T04:58:26.592Z,416
2017-09-14T04:59:26.627Z,448
2017-09-14T05:00:26.693Z,476
2017-09-14T05:01:26.669Z,504
2017-09-14T05:02:27.006Z,540
2017-09-14T05:03:26.706Z,568
2017-09-14T05:04:26.733Z,600
2017-09-14T05:05:26.755Z,636
2017-09-14T05:06:26.764Z,660
2017-09-14T05:07:26.795Z,696
2017-09-14T05:08:26.808Z,728
2017-09-14T05:09:26.842Z,760
2017-09-14T05:10:26.855Z,788
2017-09-14T05:11:26.883Z,820
2017-09-14T05:12:26.912Z,852
2017-09-14T05:13:26.930Z,880
2017-09-14T05:14:26.958Z,908
2017-09-14T05:15:26.968Z,940
2017-09-14T05:16:26.998Z,972
2017-09-14T05:17:27.323Z,996
2017-09-14T05:18:27.726Z,1028
2017-09-14T05:19:27.060Z,1052
2017-09-14T05:20:27.098Z,1084
2017-09-14T05:21:27.105Z,1108
2017-09-14T05:22:27.132Z,1136
2017-09-14T05:23:27.152Z,1164
2017-09-14T05:24:27.199Z,1192
2017-09-14T05:25:27.196Z,1228
2017-09-14T05:26:27.222Z,1260
2017-09-14T05:27:27.235Z,1292
2017-09-14T05:28:27.275Z,1328
2017-09-14T05:29:27.286Z,1364
2017-09-14T05:30:27.327Z,1400
2017-09-14T05:31:27.336Z,1436
2017-09-14T05:32:27.353Z,1476
2017-09-14T05:33:27.426Z,1508
2017-09-14T05:34:27.396Z,1548
2017-09-14T05:35:27.725Z,1584
2017-09-14T05:36:27.450Z,1620
2017-09-14T05:37:27.787Z,1656
2017-09-14T05:38:27.806Z,1696
2017-09-14T05:39:27.836Z,1736
2017-09-14T05:40:27.851Z,1772
2017-09-14T05:41:27.881Z,1808
2017-09-14T05:42:27.577Z,1848
2017-09-14T05:43:27.609Z,1888
2017-09-14T05:44:27.991Z,1928
2017-09-14T05:45:27.646Z,1968
2017-09-14T05:46:27.672Z,2004
2017-09-14T05:47:27.696Z,2044
2017-09-14T05:48:27.720Z,2088
2017-09-14T05:49:28.116Z,2128
2017-09-14T05:50:27.767Z,2164
2017-09-14T05:51:27.788Z,2212
2017-09-14T05:52:27.805Z,2252
2017-09-14T05:53:27.832Z,2296
2017-09-14T05:54:27.882Z,2336
2017-09-14T05:55:27.868Z,2376
2017-09-14T05:56:28.206Z,2420
2017-09-14T05:57:27.920Z,2464
2017-09-14T05:58:27.942Z,2504
2017-09-14T05:59:27.960Z,2544
2017-09-14T06:00:27.983Z,2588
2017-09-14T06:01:28.004Z,2628
2017-09-14T06:02:28.030Z,2672
2017-09-14T06:03:28.357Z,2716
2017-09-14T06:04:28.079Z,2760
2017-09-14T06:05:28.100Z,2800
2017-09-14T06:06:28.237Z,2840
2017-09-14T06:07:28.146Z,2884
2017-09-14T06:08:28.173Z,2916
2017-09-14T06:09:28.195Z,2952
2017-09-14T06:10:28.212Z,2980
2017-09-14T06:11:28.247Z,3016
2017-09-14T06:12:28.255Z,3060
2017-09-14T06:13:28.279Z,3108
2017-09-14T06:14:28.617Z,3152
2017-09-14T06:15:28.331Z,3192
2017-09-14T06:16:28.356Z,3240
2017-09-14T06:17:28.377Z,3280
2017-09-14T06:18:28.423Z,3324
2017-09-14T06:19:28.736Z,3360
2017-09-14T06:20:28.446Z,3396
2017-09-14T06:21:28.515Z,3440
2017-09-14T06:22:28.486Z,3480
2017-09-14T06:23:28.517Z,3516
2017-09-14T06:24:28.555Z,3556
2017-09-14T06:25:28.565Z,3588
2017-09-14T06:26:28.582Z,3624
2017-09-14T06:27:28.600Z,3664
2017-09-14T06:28:28.633Z,3692
2017-09-14T06:29:28.670Z,3732
2017-09-14T06:30:28.672Z,3764
2017-09-14T06:31:29.015Z,3800
2017-09-14T06:32:28.720Z,3832
2017-09-14T06:33:28.747Z,3868
2017-09-14T06:34:28.765Z,3904
2017-09-14T06:35:28.799Z,3940
2017-09-14T06:36:28.812Z,3980
2017-09-14T06:37:28.887Z,4020
2017-09-14T06:38:28.868Z,4060
2017-09-14T06:39:28.893Z,4104
2017-09-14T06:40:29.214Z,4144
2017-09-14T06:41:28.934Z,4184
2017-09-14T06:42:28.969Z,4236
2017-09-14T06:43:28.976Z,4288
2017-09-14T06:44:29.000Z,4348
2017-09-14T06:45:29.024Z,4416
2017-09-14T06:46:29.047Z,4516
2017-09-14T06:47:29.383Z,4644
2017-09-14T06:48:29.412Z,4788
2017-09-14T06:49:29.137Z,5036
2017-09-14T06:50:29.144Z,5316
2017-09-14T06:51:29.160Z,5552
2017-09-14T06:52:29.508Z,5696
2017-09-14T06:53:29.212Z,5860
2017-09-14T06:54:29.235Z,5936
2017-09-14T06:55:29.277Z,5748
2017-09-14T06:56:29.288Z,5928
2017-09-14T06:57:29.322Z,5908
2017-09-14T06:58:29.333Z,5900
2017-09-14T06:59:29.362Z,5920
2017-09-14T07:00:29.382Z,6176
2017-09-14T07:01:29.399Z,6536
2017-09-14T07:02:29.429Z,7200
2017-09-14T07:03:29.455Z,7572
2017-09-14T07:04:29.475Z,7800
2017-09-14T07:05:29.811Z,7768
2017-09-14T07:06:29.524Z,7776
2017-09-14T07:07:29.746Z,7972
2017-09-14T07:08:29.580Z,7948
2017-09-14T07:09:29.595Z,8188
2017-09-14T07:10:29.624Z,8444
2017-09-14T07:11:29.649Z,6772
2017-09-14T07:12:29.673Z,5688
2017-09-14T07:13:29.709Z,8956
2017-09-14T07:14:29.725Z,8852
2017-09-14T07:15:29.745Z,6484
2017-09-14T07:16:29.767Z,6188
2017-09-14T07:17:29.799Z,5632
2017-09-14T07:18:29.826Z,6572
2017-09-14T07:19:29.844Z,8676
2017-09-14T07:20:30.184Z,5852
2017-09-14T07:21:29.912Z,6436
2017-09-14T07:22:29.917Z,7392
2017-09-14T07:23:29.945Z,6080
2017-09-14T07:24:29.974Z,8992
2017-09-14T07:25:29.998Z,7724
2017-09-14T07:26:30.028Z,6188
2017-09-14T07:27:30.046Z,8132
2017-09-14T07:28:30.079Z,6972
2017-09-14T07:29:30.094Z,5984
2017-09-14T07:30:30.492Z,9248
2017-09-14T07:31:30.148Z,8100
2017-09-14T07:32:30.173Z,5956
2017-09-14T07:33:30.199Z,9412
2017-09-14T07:34:31.151Z,6024
2017-09-14T07:35:30.329Z,6076
2017-09-14T07:36:30.276Z,9600
2017-09-14T07:37:30.303Z,6092
2017-09-14T07:38:30.325Z,6728
2017-09-14T07:39:30.349Z,6044
2017-09-14T07:40:31.562Z,9576
2017-09-14T07:41:31.223Z,6904
2017-09-14T07:42:31.244Z,10432
2017-09-14T07:43:31.962Z,7716
2017-09-14T07:44:31.303Z,7036
2017-09-14T07:45:31.945Z,6376
2017-09-14T07:46:31.944Z,6400
2017-09-14T07:47:31.907Z,8460
2017-09-14T07:48:30.983Z,7176
2017-09-14T07:49:30.929Z,6724
2017-09-14T07:50:30.653Z,6652
2017-09-14T07:51:30.658Z,6976
2017-09-14T07:52:30.717Z,8032
2017-09-14T07:53:30.730Z,9584
2017-09-14T07:54:31.415Z,7864
2017-09-14T07:55:30.762Z,9920
2017-09-14T07:56:30.793Z,9972
2017-09-14T07:57:31.925Z,6832
2017-09-14T07:58:31.796Z,10732
2017-09-14T07:59:30.872Z,7472
2017-09-14T08:00:30.897Z,8588
2017-09-14T08:01:31.227Z,8604
2017-09-14T08:02:30.947Z,7452
2017-09-14T08:03:30.974Z,7612
2017-09-14T08:04:30.991Z,10504
2017-09-14T08:05:31.733Z,7008
2017-09-14T08:06:31.050Z,8140
2017-09-14T08:07:31.072Z,7400
2017-09-14T08:08:31.102Z,6728
2017-09-14T08:09:31.130Z,5904
2017-09-14T08:10:31.162Z,5776
2017-09-14T08:11:31.180Z,5736
2017-09-14T08:12:31.201Z,5392
2017-09-14T08:13:31.231Z,5088
2017-09-14T08:14:31.258Z,5500
2017-09-14T08:15:31.592Z,5508
2017-09-14T08:16:31.503Z,5476
2017-09-14T08:17:31.733Z,5740
2017-09-14T08:18:31.364Z,6636
2017-09-14T08:19:32.038Z,7828
2017-09-14T08:20:31.403Z,5304
2017-09-14T08:21:31.435Z,4796
2017-09-14T08:22:31.461Z,4872
2017-09-14T08:23:31.479Z,5532
2017-09-14T08:24:32.762Z,6252
2017-09-14T08:25:31.532Z,7392
2017-09-14T08:26:32.431Z,7672
2017-09-14T08:27:32.828Z,7332
2017-09-14T08:28:32.425Z,11552
2017-09-14T08:29:31.949Z,7120
2017-09-14T08:30:31.663Z,6976
2017-09-14T08:31:31.738Z,6528
2017-09-14T08:32:31.729Z,4772
2017-09-14T08:33:32.046Z,4408
2017-09-14T08:34:31.769Z,4376
2017-09-14T08:35:31.793Z,4384
2017-09-14T08:36:31.809Z,4484
2017-09-14T08:37:31.830Z,5000
2017-09-14T08:38:31.868Z,5248
2017-09-14T08:39:32.206Z,5076
2017-09-14T08:40:32.230Z,4828
2017-09-14T08:41:31.936Z,4292
2017-09-14T08:42:31.955Z,3932
2017-09-14T08:43:31.986Z,4480
2017-09-14T08:44:32.012Z,5384
2017-09-14T08:45:32.033Z,6436
2017-09-14T08:46:32.071Z,6608
2017-09-14T08:47:32.079Z,5852
2017-09-14T08:48:32.115Z,5448
2017-09-14T08:49:32.131Z,6040
2017-09-14T08:50:32.158Z,5636
2017-09-14T08:51:32.488Z,5028
2017-09-14T08:52:32.210Z,4560
2017-09-14T08:53:32.226Z,3928
2017-09-14T08:54:32.559Z,3508
2017-09-14T08:55:32.269Z,3496
2017-09-14T08:56:32.299Z,3876
2017-09-14T08:57:32.323Z,4544
2017-09-14T08:58:32.391Z,4824
2017-09-14T08:59:32.372Z,4284
2017-09-14T09:00:32.698Z,4248
2017-09-14T09:01:32.415Z,4188
2017-09-14T09:02:32.444Z,4092
2017-09-14T09:03:32.470Z,4112
2017-09-14T09:04:32.481Z,4040
2017-09-14T09:05:32.513Z,3680
2017-09-14T09:06:32.736Z,3504
2017-09-14T09:07:32.592Z,3384
2017-09-14T09:08:32.578Z,3884
2017-09-14T09:09:32.601Z,4644
2017-09-14T09:10:32.634Z,6288
2017-09-14T09:11:32.975Z,8012
2017-09-14T09:12:32.688Z,7808
2017-09-14T09:13:32.746Z,6276
2017-09-14T09:14:32.722Z,4468
2017-09-14T09:15:32.752Z,3896
2017-09-14T09:16:32.770Z,5928
2017-09-14T09:17:33.108Z,8296
2017-09-14T09:18:32.834Z,8824
2017-09-14T09:19:32.835Z,5424
2017-09-14T09:20:32.861Z,2752
2017-09-14T09:21:32.883Z,1964
2017-09-14T09:22:32.905Z,2732
2017-09-14T09:23:32.928Z,3320
2017-09-14T09:24:32.974Z,3076
2017-09-14T09:25:32.988Z,2392
2017-09-14T09:26:33.018Z,1792
2017-09-14T09:27:33.019Z,1784
2017-09-14T09:28:33.099Z,1940
2017-09-14T09:29:33.071Z,1996
2017-09-14T09:30:33.087Z,2112
2017-09-14T09:31:33.115Z,2748
2017-09-14T09:32:33.142Z,3296
2017-09-14T09:33:33.472Z,3756
2017-09-14T09:34:33.181Z,3564
2017-09-14T09:35:33.203Z,3920
2017-09-14T09:36:33.223Z,4888
2017-09-14T09:37:33.248Z,5140
2017-09-14T09:38:33.276Z,5124
2017-09-14T09:39:33.967Z,5004
2017-09-14T09:40:33.623Z,4104
2017-09-14T09:41:33.671Z,3308
2017-09-14T09:42:33.672Z,3072
2017-09-14T09:43:33.380Z,2684
2017-09-14T09:44:33.720Z,2528
2017-09-14T09:45:33.483Z,2608
2017-09-14T09:46:34.073Z,2796
2017-09-14T09:47:33.485Z,2868
2017-09-14T09:48:33.802Z,2992
2017-09-14T09:49:33.896Z,3916
2017-09-14T09:50:33.541Z,4868
2017-09-14T09:51:33.556Z,5660
2017-09-14T09:52:33.582Z,6352
2017-09-14T09:53:33.598Z,6304
2017-09-14T09:54:33.618Z,7140
2017-09-14T09:55:33.649Z,6352
2017-09-14T09:56:33.671Z,5636
2017-09-14T09:57:33.701Z,5552
2017-09-14T09:58:33.723Z,5900
2017-09-14T09:59:33.746Z,5564
2017-09-14T10:00:33.806Z,4572
2017-09-14T10:01:33.782Z,3824
2017-09-14T10:02:33.806Z,3244
2017-09-14T10:03:33.824Z,3264
2017-09-14T10:04:33.848Z,3104
2017-09-14T10:05:33.895Z,2932
2017-09-14T10:06:33.891Z,2560
2017-09-14T10:07:33.923Z,2304
2017-09-14T10:08:34.285Z,2208
2017-09-14T10:09:33.953Z,2264
2017-09-14T10:10:33.980Z,2300
2017-09-14T10:11:34.020Z,1932
2017-09-14T10:12:34.333Z,1688
2017-09-14T10:13:34.044Z,1656
2017-09-14T10:14:34.075Z,1604
2017-09-14T10:15:34.096Z,1784
2017-09-14T10:16:34.109Z,1760
2017-09-14T10:17:34.190Z,1592
2017-09-14T10:18:34.169Z,1608
2017-09-14T10:19:34.176Z,1720
2017-09-14T10:20:34.204Z,1716
2017-09-14T10:21:34.230Z,1636
2017-09-14T10:22:34.255Z,1488
2017-09-14T10:23:34.263Z,1408
2017-09-14T10:24:34.289Z,1400
2017-09-14T10:25:34.310Z,1460
2017-09-14T10:26:34.324Z,1556
2017-09-14T10:27:34.362Z,1548
2017-09-14T10:28:34.577Z,1468
2017-09-14T10:29:34.707Z,1440
2017-09-14T10:30:34.417Z,1396
2017-09-14T10:31:34.436Z,1288
2017-09-14T10:32:34.459Z,1180
2017-09-14T10:33:34.533Z,1112
2017-09-14T10:34:34.501Z,1060
2017-09-14T10:35:34.529Z,1152
2017-09-14T10:36:34.911Z,1276
2017-09-14T10:37:34.562Z,1332
2017-09-14T10:38:34.596Z,1336
2017-09-14T10:39:34.616Z,1380
2017-09-14T10:40:34.628Z,1408
2017-09-14T10:41:34.651Z,1348
2017-09-14T10:42:34.673Z,1168
2017-09-14T10:43:34.696Z,1016
2017-09-14T10:44:34.712Z,968
2017-09-14T10:45:34.730Z,920
2017-09-14T10:46:34.750Z,920
2017-09-14T10:47:34.783Z,928
2017-09-14T10:48:34.869Z,924
2017-09-14T10:49:34.812Z,1004
2017-09-14T10:50:34.860Z,1112
2017-09-14T10:51:34.861Z,1244
2017-09-14T10:52:34.876Z,1440
2017-09-14T10:53:34.899Z,1632
2017-09-14T10:54:34.920Z,1820
2017-09-14T10:55:34.935Z,2016
2017-09-14T10:56:35.272Z,2132
2017-09-14T10:57:34.986Z,2048
2017-09-14T10:58:34.998Z,2012
2017-09-14T10:59:35.328Z,2024
2017-09-14T11:00:35.041Z,1932
2017-09-14T11:01:35.054Z,1916
2017-09-14T11:02:35.091Z,2220
2017-09-14T11:03:35.156Z,2680
2017-09-14T11:04:35.434Z,2876
2017-09-14T11:05:35.461Z,2692
2017-09-14T11:06:35.516Z,2612
2017-09-14T11:07:35.184Z,2756
2017-09-14T11:08:35.198Z,2864
2017-09-14T11:09:35.221Z,2776
2017-09-14T11:10:35.287Z,2652
2017-09-14T11:11:35.276Z,2496
2017-09-14T11:12:35.277Z,2376
2017-09-14T11:13:35.293Z,2372
2017-09-14T11:14:35.335Z,2392
2017-09-14T11:15:35.340Z,2580
2017-09-14T11:16:35.359Z,2804
2017-09-14T11:17:35.375Z,2848
2017-09-14T11:18:35.485Z,2864
2017-09-14T11:19:35.410Z,2888
2017-09-14T11:20:35.433Z,2876
2017-09-14T11:21:35.471Z,2740
2017-09-14T11:22:35.470Z,2804
2017-09-14T11:23:35.485Z,2980
2017-09-14T11:24:35.830Z,3160
2017-09-14T11:25:35.526Z,3304
2017-09-14T11:26:36.592Z,3308
2017-09-14T11:27:38.680Z,3224
2017-09-14T11:28:35.583Z,3184
2017-09-14T11:29:35.609Z,3116
2017-09-14T11:30:35.628Z,3052
2017-09-14T11:31:35.645Z,3036
2017-09-14T11:32:35.676Z,3092
2017-09-14T11:33:35.733Z,3156
2017-09-14T11:34:35.703Z,3240
2017-09-14T11:35:35.721Z,3308
2017-09-14T11:36:35.755Z,3396
2017-09-14T11:37:35.760Z,3504
2017-09-14T11:38:35.784Z,3680
2017-09-14T11:39:35.798Z,3948
2017-09-14T11:40:35.815Z,4120
2017-09-14T11:41:35.847Z,4192
2017-09-14T11:42:36.176Z,4064
2017-09-14T11:43:36.180Z,3592
2017-09-14T11:44:35.890Z,3284
2017-09-14T11:45:35.910Z,3080
2017-09-14T11:46:35.935Z,2960
2017-09-14T11:47:35.949Z,2860
2017-09-14T11:48:35.975Z,2756
2017-09-14T11:49:36.082Z,2728
2017-09-14T11:50:36.004Z,2644
2017-09-14T11:51:36.047Z,2520
2017-09-14T11:52:36.054Z,2456
2017-09-14T11:53:36.084Z,2428
2017-09-14T11:54:36.402Z,2408
2017-09-14T11:55:36.103Z,2432
2017-09-14T11:56:36.172Z,2504
2017-09-14T11:57:36.765Z,2440
2017-09-14T11:58:36.464Z,2336
2017-09-14T11:59:36.196Z,2244
2017-09-14T12:00:36.195Z,2156
2017-09-14T12:01:36.218Z,2112
2017-09-14T12:02:36.233Z,2188
2017-09-14T12:03:36.254Z,2208
2017-09-14T12:04:36.272Z,2260
2017-09-14T12:05:36.294Z,2220
2017-09-14T12:06:36.329Z,2228
2017-09-14T12:07:36.376Z,2228
2017-09-14T12:08:36.366Z,2256
2017-09-14T12:09:36.367Z,2304
2017-09-14T12:10:36.688Z,2388
2017-09-14T12:11:36.414Z,2544
2017-09-14T12:12:36.423Z,2756
2017-09-14T12:13:36.775Z,2888
2017-09-14T12:14:36.794Z,2928
2017-09-14T12:15:36.470Z,2808
2017-09-14T12:16:36.504Z,2672
2017-09-14T12:17:37.198Z,2508
2017-09-14T12:18:36.846Z,2484
2017-09-14T12:19:36.548Z,2636
2017-09-14T12:20:36.572Z,2836
2017-09-14T12:21:36.901Z,2836
2017-09-14T12:22:36.607Z,2752
2017-09-14T12:23:36.946Z,2616
2017-09-14T12:24:36.650Z,2572
2017-09-14T12:25:36.709Z,2536
2017-09-14T12:26:36.696Z,2460
2017-09-14T12:27:37.024Z,2336
2017-09-14T12:28:36.712Z,2228
2017-09-14T12:29:36.742Z,2216
2017-09-14T12:30:36.791Z,2228
2017-09-14T12:31:37.091Z,2236
2017-09-14T12:32:36.786Z,2188
2017-09-14T12:33:36.833Z,2300
2017-09-14T12:34:36.831Z,2544
2017-09-14T12:35:37.322Z,2732
2017-09-14T12:36:36.870Z,2912
2017-09-14T12:37:36.884Z,2964
2017-09-14T12:38:37.297Z,2900
2017-09-14T12:39:36.930Z,2732
2017-09-14T12:40:36.945Z,2604
2017-09-14T12:41:37.323Z,2572
2017-09-14T12:42:36.965Z,2612
2017-09-14T12:43:36.993Z,2808
2017-09-14T12:44:37.205Z,2988
2017-09-14T12:45:37.340Z,3192
2017-09-14T12:46:37.041Z,3236
2017-09-14T12:47:37.066Z,3160
2017-09-14T12:48:37.079Z,3056
2017-09-14T12:49:37.107Z,3020
2017-09-14T12:50:37.134Z,3004
2017-09-14T12:51:37.136Z,3020
2017-09-14T12:52:37.459Z,3044
2017-09-14T12:53:37.170Z,3036
2017-09-14T12:54:37.207Z,2964
2017-09-14T12:55:37.558Z,2916
2017-09-14T12:56:37.291Z,2928
2017-09-14T12:57:37.241Z,2824
2017-09-14T12:58:37.260Z,2576
2017-09-14T12:59:37.319Z,2580
2017-09-14T13:00:37.332Z,2664
2017-09-14T13:01:37.339Z,2612
2017-09-14T13:02:37.333Z,2536
2017-09-14T13:03:37.367Z,2532
2017-09-14T13:04:37.390Z,2568
2017-09-14T13:05:37.703Z,2656
2017-09-14T13:06:37.403Z,2700
2017-09-14T13:07:37.417Z,2680
2017-09-14T13:08:37.512Z,2616
2017-09-14T13:09:37.459Z,2624
2017-09-14T13:10:37.482Z,2624
2017-09-14T13:11:37.556Z,2676
2017-09-14T13:12:37.519Z,2712
2017-09-14T13:13:37.533Z,2760
2017-09-14T13:14:37.561Z,2872
2017-09-14T13:15:37.563Z,3000
2017-09-14T13:16:38.710Z,2964
2017-09-14T13:17:38.970Z,2904
2017-09-14T13:18:38.212Z,2996
2017-09-14T13:19:37.988Z,3100
2017-09-14T13:20:37.977Z,2988
2017-09-14T13:21:37.693Z,3036
2017-09-14T13:22:38.039Z,3160
2017-09-14T13:23:37.739Z,3172
2017-09-14T13:24:37.734Z,3312
2017-09-14T13:25:37.752Z,3372
2017-09-14T13:26:37.768Z,3412
2017-09-14T13:27:37.794Z,3444
2017-09-14T13:28:38.117Z,3548
2017-09-14T13:29:37.825Z,3524
2017-09-14T13:30:37.852Z,3484
2017-09-14T13:31:37.868Z,3540
2017-09-14T13:32:37.882Z,3700
2017-09-14T13:33:37.920Z,3848
2017-09-14T13:34:38.236Z,3960
2017-09-14T13:35:37.950Z,4176
2017-09-14T13:36:37.953Z,4292
2017-09-14T13:37:37.976Z,4304
2017-09-14T13:38:38.001Z,4368
2017-09-14T13:39:38.327Z,4524
2017-09-14T13:40:38.035Z,4480
2017-09-14T13:41:38.157Z,4412
2017-09-14T13:42:38.069Z,4208
2017-09-14T13:43:38.103Z,3696
2017-09-14T13:44:38.098Z,3488
2017-09-14T13:45:38.128Z,3508
2017-09-14T13:46:38.456Z,3232
2017-09-14T13:47:38.210Z,2916